sensor_id;sensor_type;location;lat;lon;timestamp;P1;durP1;ratioP1;P2;durP2;ratioP2
52586;SDS011;38480;52.724;6.436;2024-03-25T00:00:13;29.87;;;5.83;;
52586;SDS011;38480;52.724;6.436;2024-03-25T00:02:40;25.83;;;6.30;;
52586;SDS011;38480;52.724;6.436;2024-03-25T00:05:06;40.07;;;5.80;;
52586;SDS011;38480;52.724;6.436;2024-03-25T00:07:34;22.87;;;5.57;;
52586;SDS011;38480;52.724;6.436;2024-03-25T00:10:01;31.77;;;5.67;;
52586;SDS011;38480;52.724;6.436;2024-03-25T00:12:27;22.87;;;5.43;;
52586;SDS011;38480;52.724;6.436;2024-03-25T00:14:53;31.90;;;5.43;;
52586;SDS011;38480;52.724;6.436;2024-03-25T00:17:19;42.20;;;7.03;;
52586;SDS011;38480;52.724;6.436;2024-03-25T00:19:46;32.20;;;5.67;;
52586;SDS011;38480;52.724;6.436;2024-03-25T00:22:16;23.50;;;5.10;;
52586;SDS011;38480;52.724;6.436;2024-03-25T00:24:42;26.43;;;6.30;;
52586;SDS011;38480;52.724;6.436;2024-03-25T00:27:09;29.03;;;6.23;;
52586;SDS011;38480;52.724;6.436;2024-03-25T00:29:35;24.37;;;5.07;;
52586;SDS011;38480;52.724;6.436;2024-03-25T00:32:01;23.33;;;5.17;;
52586;SDS011;38480;52.724;6.436;2024-03-25T00:34:27;35.17;;;5.50;;
52586;SDS011;38480;52.724;6.436;2024-03-25T00:36:53;32.67;;;6.00;;
52586;SDS011;38480;52.724;6.436;2024-03-25T00:39:19;38.63;;;6.50;;
52586;SDS011;38480;52.724;6.436;2024-03-25T00:41:46;30.80;;;6.50;;
52586;SDS011;38480;52.724;6.436;2024-03-25T00:44:12;26.97;;;4.30;;
52586;SDS011;38480;52.724;6.436;2024-03-25T00:46:39;28.17;;;4.67;;
52586;SDS011;38480;52.724;6.436;2024-03-25T00:49:07;30.37;;;5.40;;
52586;SDS011;38480;52.724;6.436;2024-03-25T00:51:33;20.00;;;4.67;;
52586;SDS011;38480;52.724;6.436;2024-03-25T00:53:59;24.70;;;3.87;;
52586;SDS011;38480;52.724;6.436;2024-03-25T00:56:25;21.30;;;4.40;;
52586;SDS011;38480;52.724;6.436;2024-03-25T00:58:51;29.90;;;5.77;;
52586;SDS011;38480;52.724;6.436;2024-03-25T01:01:17;28.23;;;5.47;;
52586;SDS011;38480;52.724;6.436;2024-03-25T01:03:43;22.87;;;6.10;;
52586;SDS011;38480;52.724;6.436;2024-03-25T01:06:09;35.00;;;6.63;;
52586;SDS011;38480;52.724;6.436;2024-03-25T01:08:36;23.47;;;4.97;;
52586;SDS011;38480;52.724;6.436;2024-03-25T01:11:02;24.80;;;4.40;;
52586;SDS011;38480;52.724;6.436;2024-03-25T01:13:28;25.10;;;5.07;;
52586;SDS011;38480;52.724;6.436;2024-03-25T01:15:54;18.03;;;4.27;;
52586;SDS011;38480;52.724;6.436;2024-03-25T01:18:20;23.57;;;5.03;;
52586;SDS011;38480;52.724;6.436;2024-03-25T01:20:46;38.97;;;6.17;;
52586;SDS011;38480;52.724;6.436;2024-03-25T01:23:12;31.63;;;4.60;;
52586;SDS011;38480;52.724;6.436;2024-03-25T01:25:38;29.17;;;4.63;;
52586;SDS011;38480;52.724;6.436;2024-03-25T01:28:04;27.90;;;4.67;;
52586;SDS011;38480;52.724;6.436;2024-03-25T01:30:30;29.67;;;6.23;;
52586;SDS011;38480;52.724;6.436;2024-03-25T01:32:57;31.83;;;5.50;;
52586;SDS011;38480;52.724;6.436;2024-03-25T01:35:23;24.43;;;4.50;;
52586;SDS011;38480;52.724;6.436;2024-03-25T01:37:49;27.50;;;6.60;;
52586;SDS011;38480;52.724;6.436;2024-03-25T01:40:15;33.00;;;4.93;;
52586;SDS011;38480;52.724;6.436;2024-03-25T01:42:41;34.13;;;6.67;;
52586;SDS011;38480;52.724;6.436;2024-03-25T01:45:09;39.90;;;6.03;;
52586;SDS011;38480;52.724;6.436;2024-03-25T01:47:35;31.43;;;5.23;;
52586;SDS011;38480;52.724;6.436;2024-03-25T01:50:04;44.37;;;5.10;;
52586;SDS011;38480;52.724;6.436;2024-03-25T01:52:31;50.23;;;6.90;;
52586;SDS011;38480;52.724;6.436;2024-03-25T01:54:57;26.37;;;5.83;;
52586;SDS011;38480;52.724;6.436;2024-03-25T01:57:23;30.67;;;5.57;;
52586;SDS011;38480;52.724;6.436;2024-03-25T01:59:51;27.00;;;4.47;;
52586;SDS011;38480;52.724;6.436;2024-03-25T02:02:18;26.50;;;5.10;;
52586;SDS011;38480;52.724;6.436;2024-03-25T02:04:44;24.70;;;4.87;;
52586;SDS011;38480;52.724;6.436;2024-03-25T02:07:10;42.07;;;6.53;;
52586;SDS011;38480;52.724;6.436;2024-03-25T02:09:37;33.80;;;5.30;;
52586;SDS011;38480;52.724;6.436;2024-03-25T02:12:04;40.67;;;6.77;;
52586;SDS011;38480;52.724;6.436;2024-03-25T02:14:30;39.23;;;5.33;;
52586;SDS011;38480;52.724;6.436;2024-03-25T02:16:56;36.80;;;6.17;;
52586;SDS011;38480;52.724;6.436;2024-03-25T02:19:22;34.20;;;7.87;;
52586;SDS011;38480;52.724;6.436;2024-03-25T02:21:49;28.33;;;5.23;;
52586;SDS011;38480;52.724;6.436;2024-03-25T02:24:15;28.17;;;4.90;;
52586;SDS011;38480;52.724;6.436;2024-03-25T02:26:42;36.80;;;6.73;;
52586;SDS011;38480;52.724;6.436;2024-03-25T02:29:09;29.10;;;4.70;;
52586;SDS011;38480;52.724;6.436;2024-03-25T02:31:35;26.67;;;5.23;;
52586;SDS011;38480;52.724;6.436;2024-03-25T02:34:01;32.43;;;5.10;;
52586;SDS011;38480;52.724;6.436;2024-03-25T02:36:27;34.67;;;6.13;;
52586;SDS011;38480;52.724;6.436;2024-03-25T02:38:53;36.77;;;6.00;;
52586;SDS011;38480;52.724;6.436;2024-03-25T02:41:19;22.53;;;5.83;;
52586;SDS011;38480;52.724;6.436;2024-03-25T02:43:47;39.63;;;5.17;;
52586;SDS011;38480;52.724;6.436;2024-03-25T02:46:14;31.43;;;4.73;;
52586;SDS011;38480;52.724;6.436;2024-03-25T02:48:40;27.80;;;4.53;;
52586;SDS011;38480;52.724;6.436;2024-03-25T02:51:06;36.53;;;6.77;;
52586;SDS011;38480;52.724;6.436;2024-03-25T02:53:32;35.57;;;6.40;;
52586;SDS011;38480;52.724;6.436;2024-03-25T02:55:58;27.90;;;5.00;;
52586;SDS011;38480;52.724;6.436;2024-03-25T02:58:24;31.33;;;5.33;;
52586;SDS011;38480;52.724;6.436;2024-03-25T03:00:50;23.63;;;5.03;;
52586;SDS011;38480;52.724;6.436;2024-03-25T03:03:16;35.93;;;5.90;;
52586;SDS011;38480;52.724;6.436;2024-03-25T03:05:42;32.13;;;5.30;;
52586;SDS011;38480;52.724;6.436;2024-03-25T03:08:08;28.00;;;5.40;;
52586;SDS011;38480;52.724;6.436;2024-03-25T03:10:34;35.67;;;8.13;;
52586;SDS011;38480;52.724;6.436;2024-03-25T03:13:00;25.73;;;5.03;;
52586;SDS011;38480;52.724;6.436;2024-03-25T03:15:26;39.33;;;5.53;;
52586;SDS011;38480;52.724;6.436;2024-03-25T03:17:52;39.17;;;5.73;;
52586;SDS011;38480;52.724;6.436;2024-03-25T03:20:18;27.00;;;7.27;;
52586;SDS011;38480;52.724;6.436;2024-03-25T03:22:45;34.37;;;4.70;;
52586;SDS011;38480;52.724;6.436;2024-03-25T03:25:11;28.03;;;5.63;;
52586;SDS011;38480;52.724;6.436;2024-03-25T03:27:37;31.93;;;6.23;;
52586;SDS011;38480;52.724;6.436;2024-03-25T03:30:03;35.50;;;5.30;;
52586;SDS011;38480;52.724;6.436;2024-03-25T03:32:29;27.37;;;4.70;;
52586;SDS011;38480;52.724;6.436;2024-03-25T03:34:55;30.30;;;4.77;;
52586;SDS011;38480;52.724;6.436;2024-03-25T03:37:21;27.77;;;5.13;;
52586;SDS011;38480;52.724;6.436;2024-03-25T03:39:47;27.67;;;4.93;;
52586;SDS011;38480;52.724;6.436;2024-03-25T03:42:13;27.07;;;6.20;;
52586;SDS011;38480;52.724;6.436;2024-03-25T03:44:39;29.77;;;4.90;;
52586;SDS011;38480;52.724;6.436;2024-03-25T03:47:05;23.80;;;4.77;;
52586;SDS011;38480;52.724;6.436;2024-03-25T03:49:32;41.50;;;6.43;;
52586;SDS011;38480;52.724;6.436;2024-03-25T03:51:58;30.57;;;4.33;;
52586;SDS011;38480;52.724;6.436;2024-03-25T03:54:24;29.23;;;5.07;;
52586;SDS011;38480;52.724;6.436;2024-03-25T03:56:50;34.87;;;5.97;;
52586;SDS011;38480;52.724;6.436;2024-03-25T03:59:16;29.10;;;5.20;;
52586;SDS011;38480;52.724;6.436;2024-03-25T04:01:42;30.90;;;4.93;;
52586;SDS011;38480;52.724;6.436;2024-03-25T04:04:08;23.77;;;4.50;;
52586;SDS011;38480;52.724;6.436;2024-03-25T04:06:35;25.57;;;4.03;;
52586;SDS011;38480;52.724;6.436;2024-03-25T04:09:01;25.37;;;3.80;;
52586;SDS011;38480;52.724;6.436;2024-03-25T04:11:27;27.07;;;5.13;;
52586;SDS011;38480;52.724;6.436;2024-03-25T04:13:53;26.13;;;4.90;;
52586;SDS011;38480;52.724;6.436;2024-03-25T04:16:19;22.23;;;4.43;;
52586;SDS011;38480;52.724;6.436;2024-03-25T04:18:47;39.03;;;6.17;;
52586;SDS011;38480;52.724;6.436;2024-03-25T04:21:13;24.87;;;4.93;;
52586;SDS011;38480;52.724;6.436;2024-03-25T04:23:39;27.33;;;4.70;;
52586;SDS011;38480;52.724;6.436;2024-03-25T04:26:06;24.60;;;4.17;;
52586;SDS011;38480;52.724;6.436;2024-03-25T04:28:33;30.90;;;5.53;;
52586;SDS011;38480;52.724;6.436;2024-03-25T04:31:00;24.23;;;4.80;;
52586;SDS011;38480;52.724;6.436;2024-03-25T04:33:26;31.10;;;5.20;;
52586;SDS011;38480;52.724;6.436;2024-03-25T04:35:52;31.03;;;5.23;;
52586;SDS011;38480;52.724;6.436;2024-03-25T04:38:18;30.93;;;5.13;;
52586;SDS011;38480;52.724;6.436;2024-03-25T04:40:44;26.13;;;6.37;;
52586;SDS011;38480;52.724;6.436;2024-03-25T04:43:10;25.43;;;3.93;;
52586;SDS011;38480;52.724;6.436;2024-03-25T04:45:36;22.00;;;4.23;;
52586;SDS011;38480;52.724;6.436;2024-03-25T04:48:02;27.93;;;4.60;;
52586;SDS011;38480;52.724;6.436;2024-03-25T04:50:28;22.20;;;5.80;;
52586;SDS011;38480;52.724;6.436;2024-03-25T04:52:56;29.27;;;4.00;;
52586;SDS011;38480;52.724;6.436;2024-03-25T04:55:22;16.43;;;3.77;;
52586;SDS011;38480;52.724;6.436;2024-03-25T04:57:48;21.50;;;4.37;;
52586;SDS011;38480;52.724;6.436;2024-03-25T05:00:14;25.20;;;3.73;;
52586;SDS011;38480;52.724;6.436;2024-03-25T05:02:40;17.10;;;3.47;;
52586;SDS011;38480;52.724;6.436;2024-03-25T05:05:06;24.87;;;3.73;;
52586;SDS011;38480;52.724;6.436;2024-03-25T05:07:33;18.30;;;5.00;;
52586;SDS011;38480;52.724;6.436;2024-03-25T05:09:59;23.07;;;4.00;;
52586;SDS011;38480;52.724;6.436;2024-03-25T05:12:25;19.77;;;3.03;;
52586;SDS011;38480;52.724;6.436;2024-03-25T05:14:57;20.83;;;3.67;;
52586;SDS011;38480;52.724;6.436;2024-03-25T05:17:24;30.20;;;4.07;;
52586;SDS011;38480;52.724;6.436;2024-03-25T05:19:50;21.07;;;3.67;;
52586;SDS011;38480;52.724;6.436;2024-03-25T05:22:16;25.90;;;4.73;;
52586;SDS011;38480;52.724;6.436;2024-03-25T05:24:42;22.93;;;3.90;;
52586;SDS011;38480;52.724;6.436;2024-03-25T05:27:08;26.13;;;4.70;;
52586;SDS011;38480;52.724;6.436;2024-03-25T05:29:34;18.60;;;2.87;;
52586;SDS011;38480;52.724;6.436;2024-03-25T05:32:00;17.57;;;3.10;;
52586;SDS011;38480;52.724;6.436;2024-03-25T05:34:27;12.93;;;2.33;;
52586;SDS011;38480;52.724;6.436;2024-03-25T05:36:53;21.13;;;3.10;;
52586;SDS011;38480;52.724;6.436;2024-03-25T05:39:20;19.63;;;3.47;;
52586;SDS011;38480;52.724;6.436;2024-03-25T05:41:46;13.03;;;2.33;;
52586;SDS011;38480;52.724;6.436;2024-03-25T05:44:12;19.40;;;2.73;;
52586;SDS011;38480;52.724;6.436;2024-03-25T05:46:39;14.87;;;2.63;;
52586;SDS011;38480;52.724;6.436;2024-03-25T05:49:05;15.57;;;3.00;;
52586;SDS011;38480;52.724;6.436;2024-03-25T05:51:31;20.23;;;3.80;;
52586;SDS011;38480;52.724;6.436;2024-03-25T05:54:01;14.63;;;3.60;;
52586;SDS011;38480;52.724;6.436;2024-03-25T05:56:27;11.23;;;2.37;;
52586;SDS011;38480;52.724;6.436;2024-03-25T05:58:59;23.17;;;4.60;;
52586;SDS011;38480;52.724;6.436;2024-03-25T06:01:25;22.23;;;3.50;;
52586;SDS011;38480;52.724;6.436;2024-03-25T06:03:51;17.40;;;2.87;;
52586;SDS011;38480;52.724;6.436;2024-03-25T06:06:17;15.00;;;2.90;;
52586;SDS011;38480;52.724;6.436;2024-03-25T06:08:44;24.77;;;3.30;;
52586;SDS011;38480;52.724;6.436;2024-03-25T06:11:10;13.73;;;2.63;;
52586;SDS011;38480;52.724;6.436;2024-03-25T06:13:36;14.93;;;3.70;;
52586;SDS011;38480;52.724;6.436;2024-03-25T06:16:02;20.77;;;3.30;;
52586;SDS011;38480;52.724;6.436;2024-03-25T06:18:28;17.00;;;3.10;;
52586;SDS011;38480;52.724;6.436;2024-03-25T06:20:54;22.23;;;3.10;;
52586;SDS011;38480;52.724;6.436;2024-03-25T06:23:27;13.87;;;3.13;;
52586;SDS011;38480;52.724;6.436;2024-03-25T06:25:54;19.23;;;4.93;;
52586;SDS011;38480;52.724;6.436;2024-03-25T06:28:20;18.43;;;3.47;;
52586;SDS011;38480;52.724;6.436;2024-03-25T06:30:47;16.67;;;3.23;;
52586;SDS011;38480;52.724;6.436;2024-03-25T06:33:32;12.97;;;2.73;;
52586;SDS011;38480;52.724;6.436;2024-03-25T06:36:17;19.20;;;4.40;;
52586;SDS011;38480;52.724;6.436;2024-03-25T06:38:43;18.80;;;3.97;;
52586;SDS011;38480;52.724;6.436;2024-03-25T06:41:09;16.40;;;3.87;;
52586;SDS011;38480;52.724;6.436;2024-03-25T06:43:36;19.10;;;3.90;;
52586;SDS011;38480;52.724;6.436;2024-03-25T06:46:03;16.30;;;3.30;;
52586;SDS011;38480;52.724;6.436;2024-03-25T06:48:29;18.53;;;4.63;;
52586;SDS011;38480;52.724;6.436;2024-03-25T06:50:55;19.37;;;4.43;;
52586;SDS011;38480;52.724;6.436;2024-03-25T06:53:22;26.43;;;3.83;;
52586;SDS011;38480;52.724;6.436;2024-03-25T06:55:51;21.70;;;3.97;;
52586;SDS011;38480;52.724;6.436;2024-03-25T06:58:18;17.63;;;4.03;;
52586;SDS011;38480;52.724;6.436;2024-03-25T07:00:44;19.57;;;4.00;;
52586;SDS011;38480;52.724;6.436;2024-03-25T07:03:10;15.47;;;3.10;;
52586;SDS011;38480;52.724;6.436;2024-03-25T07:05:36;14.67;;;3.10;;
52586;SDS011;38480;52.724;6.436;2024-03-25T07:08:02;18.23;;;3.83;;
52586;SDS011;38480;52.724;6.436;2024-03-25T07:10:29;11.30;;;2.93;;
52586;SDS011;38480;52.724;6.436;2024-03-25T07:12:55;21.73;;;3.87;;
52586;SDS011;38480;52.724;6.436;2024-03-25T07:15:21;20.47;;;4.53;;
52586;SDS011;38480;52.724;6.436;2024-03-25T07:17:47;20.20;;;4.37;;
52586;SDS011;38480;52.724;6.436;2024-03-25T07:20:13;16.30;;;3.60;;
52586;SDS011;38480;52.724;6.436;2024-03-25T07:22:39;21.37;;;5.03;;
52586;SDS011;38480;52.724;6.436;2024-03-25T07:25:05;20.87;;;3.13;;
52586;SDS011;38480;52.724;6.436;2024-03-25T07:27:31;16.47;;;3.67;;
52586;SDS011;38480;52.724;6.436;2024-03-25T07:29:57;16.33;;;3.93;;
52586;SDS011;38480;52.724;6.436;2024-03-25T07:32:23;20.57;;;3.80;;
52586;SDS011;38480;52.724;6.436;2024-03-25T07:34:49;19.07;;;3.80;;
52586;SDS011;38480;52.724;6.436;2024-03-25T07:37:15;29.90;;;5.33;;
52586;SDS011;38480;52.724;6.436;2024-03-25T07:39:42;20.90;;;5.10;;
52586;SDS011;38480;52.724;6.436;2024-03-25T07:42:08;19.73;;;4.70;;
52586;SDS011;38480;52.724;6.436;2024-03-25T07:44:34;22.17;;;4.93;;
52586;SDS011;38480;52.724;6.436;2024-03-25T07:47:00;19.77;;;4.20;;
52586;SDS011;38480;52.724;6.436;2024-03-25T07:49:27;24.20;;;4.73;;
52586;SDS011;38480;52.724;6.436;2024-03-25T07:51:53;29.63;;;5.63;;
52586;SDS011;38480;52.724;6.436;2024-03-25T07:54:19;27.77;;;4.87;;
52586;SDS011;38480;52.724;6.436;2024-03-25T07:56:45;26.60;;;5.07;;
52586;SDS011;38480;52.724;6.436;2024-03-25T07:59:11;29.63;;;6.03;;
52586;SDS011;38480;52.724;6.436;2024-03-25T08:01:37;26.67;;;6.03;;
52586;SDS011;38480;52.724;6.436;2024-03-25T08:04:03;31.47;;;5.87;;
52586;SDS011;38480;52.724;6.436;2024-03-25T08:06:29;20.13;;;5.30;;
52586;SDS011;38480;52.724;6.436;2024-03-25T08:08:55;16.83;;;5.03;;
52586;SDS011;38480;52.724;6.436;2024-03-25T08:11:21;32.73;;;4.67;;
52586;SDS011;38480;52.724;6.436;2024-03-25T08:13:48;30.03;;;5.60;;
52586;SDS011;38480;52.724;6.436;2024-03-25T08:16:14;23.10;;;5.40;;
52586;SDS011;38480;52.724;6.436;2024-03-25T08:18:40;34.73;;;5.27;;
52586;SDS011;38480;52.724;6.436;2024-03-25T08:21:06;25.37;;;5.20;;
52586;SDS011;38480;52.724;6.436;2024-03-25T08:23:32;25.27;;;5.67;;
52586;SDS011;38480;52.724;6.436;2024-03-25T08:25:58;32.80;;;5.07;;
52586;SDS011;38480;52.724;6.436;2024-03-25T08:28:26;16.63;;;3.90;;
52586;SDS011;38480;52.724;6.436;2024-03-25T08:30:52;29.50;;;5.03;;
52586;SDS011;38480;52.724;6.436;2024-03-25T08:33:18;23.87;;;4.83;;
52586;SDS011;38480;52.724;6.436;2024-03-25T08:35:44;22.23;;;4.03;;
52586;SDS011;38480;52.724;6.436;2024-03-25T08:38:10;30.13;;;4.83;;
52586;SDS011;38480;52.724;6.436;2024-03-25T08:40:36;18.73;;;3.90;;
52586;SDS011;38480;52.724;6.436;2024-03-25T08:43:02;24.60;;;4.70;;
52586;SDS011;38480;52.724;6.436;2024-03-25T08:45:28;15.00;;;3.30;;
52586;SDS011;38480;52.724;6.436;2024-03-25T08:47:54;20.23;;;4.83;;
52586;SDS011;38480;52.724;6.436;2024-03-25T08:50:21;14.90;;;4.97;;
52586;SDS011;38480;52.724;6.436;2024-03-25T08:52:48;18.53;;;5.10;;
52586;SDS011;38480;52.724;6.436;2024-03-25T08:55:14;21.47;;;4.93;;
52586;SDS011;38480;52.724;6.436;2024-03-25T08:57:40;33.97;;;6.67;;
52586;SDS011;38480;52.724;6.436;2024-03-25T09:00:06;27.70;;;5.37;;
52586;SDS011;38480;52.724;6.436;2024-03-25T09:02:38;22.27;;;4.17;;
52586;SDS011;38480;52.724;6.436;2024-03-25T09:05:04;28.33;;;5.33;;
52586;SDS011;38480;52.724;6.436;2024-03-25T09:07:31;26.73;;;4.73;;
52586;SDS011;38480;52.724;6.436;2024-03-25T09:09:57;23.40;;;4.17;;
52586;SDS011;38480;52.724;6.436;2024-03-25T09:12:42;17.33;;;4.30;;
52586;SDS011;38480;52.724;6.436;2024-03-25T09:15:08;18.13;;;3.67;;
52586;SDS011;38480;52.724;6.436;2024-03-25T09:17:37;22.67;;;3.83;;
52586;SDS011;38480;52.724;6.436;2024-03-25T09:20:04;14.87;;;3.17;;
52586;SDS011;38480;52.724;6.436;2024-03-25T09:22:41;20.03;;;4.33;;
52586;SDS011;38480;52.724;6.436;2024-03-25T09:25:07;15.67;;;3.77;;
52586;SDS011;38480;52.724;6.436;2024-03-25T09:27:33;18.23;;;3.33;;
52586;SDS011;38480;52.724;6.436;2024-03-25T09:29:59;24.60;;;4.80;;
52586;SDS011;38480;52.724;6.436;2024-03-25T09:32:25;25.10;;;4.33;;
52586;SDS011;38480;52.724;6.436;2024-03-25T09:34:51;23.37;;;3.57;;
52586;SDS011;38480;52.724;6.436;2024-03-25T09:37:17;23.00;;;4.53;;
52586;SDS011;38480;52.724;6.436;2024-03-25T09:39:43;15.67;;;2.53;;
52586;SDS011;38480;52.724;6.436;2024-03-25T09:42:11;14.57;;;3.23;;
52586;SDS011;38480;52.724;6.436;2024-03-25T09:44:40;19.87;;;3.63;;
52586;SDS011;38480;52.724;6.436;2024-03-25T09:47:06;19.33;;;3.17;;
52586;SDS011;38480;52.724;6.436;2024-03-25T09:49:32;14.97;;;3.13;;
52586;SDS011;38480;52.724;6.436;2024-03-25T09:51:58;13.93;;;2.97;;
52586;SDS011;38480;52.724;6.436;2024-03-25T09:54:25;18.23;;;4.13;;
52586;SDS011;38480;52.724;6.436;2024-03-25T09:56:51;17.07;;;3.30;;
52586;SDS011;38480;52.724;6.436;2024-03-25T09:59:17;19.43;;;3.13;;
52586;SDS011;38480;52.724;6.436;2024-03-25T10:01:44;16.23;;;4.03;;
52586;SDS011;38480;52.724;6.436;2024-03-25T10:04:10;15.30;;;4.23;;
52586;SDS011;38480;52.724;6.436;2024-03-25T10:06:36;12.77;;;3.57;;
52586;SDS011;38480;52.724;6.436;2024-03-25T10:09:05;12.77;;;2.90;;
52586;SDS011;38480;52.724;6.436;2024-03-25T10:11:31;12.17;;;2.57;;
52586;SDS011;38480;52.724;6.436;2024-03-25T10:14:00;10.77;;;2.17;;
52586;SDS011;38480;52.724;6.436;2024-03-25T10:16:26;9.27;;;2.10;;
52586;SDS011;38480;52.724;6.436;2024-03-25T10:18:52;10.97;;;1.77;;
52586;SDS011;38480;52.724;6.436;2024-03-25T10:21:21;8.50;;;2.33;;
52586;SDS011;38480;52.724;6.436;2024-03-25T10:23:48;9.37;;;2.63;;
52586;SDS011;38480;52.724;6.436;2024-03-25T10:26:27;13.90;;;2.60;;
52586;SDS011;38480;52.724;6.436;2024-03-25T10:29:03;13.37;;;2.20;;
52586;SDS011;38480;52.724;6.436;2024-03-25T10:31:31;7.90;;;2.00;;
52586;SDS011;38480;52.724;6.436;2024-03-25T10:33:57;15.27;;;3.20;;
52586;SDS011;38480;52.724;6.436;2024-03-25T10:36:24;10.90;;;2.00;;
52586;SDS011;38480;52.724;6.436;2024-03-25T10:38:54;11.43;;;2.33;;
52586;SDS011;38480;52.724;6.436;2024-03-25T10:41:20;15.10;;;3.30;;
52586;SDS011;38480;52.724;6.436;2024-03-25T10:43:47;13.53;;;2.20;;
52586;SDS011;38480;52.724;6.436;2024-03-25T10:46:15;8.63;;;1.70;;
52586;SDS011;38480;52.724;6.436;2024-03-25T10:48:43;10.40;;;2.17;;
52586;SDS011;38480;52.724;6.436;2024-03-25T10:51:13;11.67;;;2.03;;
52586;SDS011;38480;52.724;6.436;2024-03-25T10:53:39;6.97;;;2.00;;
52586;SDS011;38480;52.724;6.436;2024-03-25T10:56:06;8.37;;;2.00;;
52586;SDS011;38480;52.724;6.436;2024-03-25T10:58:33;10.67;;;2.37;;
52586;SDS011;38480;52.724;6.436;2024-03-25T11:00:59;7.23;;;2.60;;
52586;SDS011;38480;52.724;6.436;2024-03-25T11:03:26;10.73;;;1.80;;
52586;SDS011;38480;52.724;6.436;2024-03-25T11:05:52;13.33;;;3.20;;
52586;SDS011;38480;52.724;6.436;2024-03-25T11:08:18;12.70;;;2.67;;
52586;SDS011;38480;52.724;6.436;2024-03-25T11:10:45;14.53;;;2.40;;
52586;SDS011;38480;52.724;6.436;2024-03-25T11:13:18;11.30;;;2.03;;
52586;SDS011;38480;52.724;6.436;2024-03-25T11:15:45;11.47;;;2.30;;
52586;SDS011;38480;52.724;6.436;2024-03-25T11:18:12;11.57;;;2.80;;
52586;SDS011;38480;52.724;6.436;2024-03-25T11:20:38;12.20;;;2.17;;
52586;SDS011;38480;52.724;6.436;2024-03-25T11:23:11;8.70;;;2.83;;
52586;SDS011;38480;52.724;6.436;2024-03-25T11:25:37;9.95;;;2.33;;
52586;SDS011;38480;52.724;6.436;2024-03-25T11:28:03;7.60;;;2.20;;
52586;SDS011;38480;52.724;6.436;2024-03-25T11:30:30;10.37;;;1.77;;
52586;SDS011;38480;52.724;6.436;2024-03-25T11:32:56;7.83;;;1.93;;
52586;SDS011;38480;52.724;6.436;2024-03-25T11:35:24;10.93;;;2.90;;
52586;SDS011;38480;52.724;6.436;2024-03-25T11:37:50;7.80;;;2.00;;
52586;SDS011;38480;52.724;6.436;2024-03-25T11:40:17;12.23;;;2.57;;
52586;SDS011;38480;52.724;6.436;2024-03-25T11:42:44;7.60;;;2.23;;
52586;SDS011;38480;52.724;6.436;2024-03-25T11:47:41;14.23;;;2.70;;
52586;SDS011;38480;52.724;6.436;2024-03-25T11:50:08;10.10;;;1.67;;
52586;SDS011;38480;52.724;6.436;2024-03-25T11:52:34;14.23;;;2.60;;
52586;SDS011;38480;52.724;6.436;2024-03-25T11:55:00;9.40;;;2.47;;
52586;SDS011;38480;52.724;6.436;2024-03-25T11:57:27;10.60;;;2.53;;
52586;SDS011;38480;52.724;6.436;2024-03-25T11:59:54;12.53;;;2.60;;
52586;SDS011;38480;52.724;6.436;2024-03-25T12:02:20;13.87;;;2.40;;
52586;SDS011;38480;52.724;6.436;2024-03-25T12:04:47;7.83;;;1.97;;
52586;SDS011;38480;52.724;6.436;2024-03-25T12:07:16;10.63;;;2.33;;
52586;SDS011;38480;52.724;6.436;2024-03-25T12:09:42;10.13;;;1.80;;
52586;SDS011;38480;52.724;6.436;2024-03-25T12:12:27;12.60;;;2.20;;
52586;SDS011;38480;52.724;6.436;2024-03-25T12:14:53;11.23;;;2.47;;
52586;SDS011;38480;52.724;6.436;2024-03-25T12:17:19;11.80;;;2.23;;
52586;SDS011;38480;52.724;6.436;2024-03-25T12:20:01;13.60;;;2.63;;
52586;SDS011;38480;52.724;6.436;2024-03-25T12:22:29;11.53;;;2.60;;
52586;SDS011;38480;52.724;6.436;2024-03-25T12:25:02;7.57;;;1.67;;
52586;SDS011;38480;52.724;6.436;2024-03-25T12:30:01;8.77;;;2.00;;
52586;SDS011;38480;52.724;6.436;2024-03-25T12:35:10;9.43;;;2.40;;
52586;SDS011;38480;52.724;6.436;2024-03-25T12:37:39;7.87;;;1.80;;
52586;SDS011;38480;52.724;6.436;2024-03-25T12:40:06;10.70;;;1.97;;
52586;SDS011;38480;52.724;6.436;2024-03-25T12:42:33;11.40;;;2.37;;
52586;SDS011;38480;52.724;6.436;2024-03-25T12:44:59;11.60;;;2.27;;
52586;SDS011;38480;52.724;6.436;2024-03-25T12:47:25;8.13;;;2.33;;
52586;SDS011;38480;52.724;6.436;2024-03-25T12:49:52;9.33;;;2.20;;
52586;SDS011;38480;52.724;6.436;2024-03-25T12:52:18;7.00;;;2.27;;
52586;SDS011;38480;52.724;6.436;2024-03-25T12:54:44;6.73;;;1.77;;
52586;SDS011;38480;52.724;6.436;2024-03-25T12:57:11;5.17;;;1.70;;
52586;SDS011;38480;52.724;6.436;2024-03-25T12:59:37;8.20;;;1.90;;
52586;SDS011;38480;52.724;6.436;2024-03-25T13:02:03;10.00;;;2.17;;
52586;SDS011;38480;52.724;6.436;2024-03-25T13:04:29;10.97;;;1.87;;
52586;SDS011;38480;52.724;6.436;2024-03-25T13:06:55;9.23;;;2.17;;
52586;SDS011;38480;52.724;6.436;2024-03-25T13:09:21;7.23;;;2.00;;
52586;SDS011;38480;52.724;6.436;2024-03-25T13:11:47;7.57;;;2.07;;
52586;SDS011;38480;52.724;6.436;2024-03-25T13:14:13;6.70;;;1.63;;
52586;SDS011;38480;52.724;6.436;2024-03-25T13:16:41;7.27;;;1.97;;
52586;SDS011;38480;52.724;6.436;2024-03-25T13:19:07;8.90;;;2.20;;
52586;SDS011;38480;52.724;6.436;2024-03-25T13:21:33;7.70;;;1.97;;
52586;SDS011;38480;52.724;6.436;2024-03-25T13:23:59;5.40;;;1.60;;
52586;SDS011;38480;52.724;6.436;2024-03-25T13:26:25;7.97;;;1.50;;
52586;SDS011;38480;52.724;6.436;2024-03-25T13:28:52;6.90;;;1.43;;
52586;SDS011;38480;52.724;6.436;2024-03-25T13:31:18;5.33;;;1.90;;
52586;SDS011;38480;52.724;6.436;2024-03-25T13:33:44;5.70;;;1.87;;
52586;SDS011;38480;52.724;6.436;2024-03-25T13:36:10;10.27;;;2.20;;
52586;SDS011;38480;52.724;6.436;2024-03-25T13:38:36;7.13;;;1.73;;
52586;SDS011;38480;52.724;6.436;2024-03-25T13:41:04;9.43;;;2.17;;
52586;SDS011;38480;52.724;6.436;2024-03-25T13:43:31;6.83;;;1.40;;
52586;SDS011;38480;52.724;6.436;2024-03-25T13:45:57;5.73;;;1.40;;
52586;SDS011;38480;52.724;6.436;2024-03-25T13:48:23;5.63;;;1.27;;
52586;SDS011;38480;52.724;6.436;2024-03-25T13:50:52;9.33;;;1.80;;
52586;SDS011;38480;52.724;6.436;2024-03-25T13:53:19;4.23;;;1.23;;
52586;SDS011;38480;52.724;6.436;2024-03-25T13:55:45;4.57;;;1.37;;
52586;SDS011;38480;52.724;6.436;2024-03-25T13:58:11;4.13;;;1.43;;
52586;SDS011;38480;52.724;6.436;2024-03-25T14:00:37;6.00;;;1.37;;
52586;SDS011;38480;52.724;6.436;2024-03-25T14:03:04;5.47;;;2.10;;
52586;SDS011;38480;52.724;6.436;2024-03-25T14:05:30;5.13;;;1.17;;
52586;SDS011;38480;52.724;6.436;2024-03-25T14:07:56;6.40;;;1.50;;
52586;SDS011;38480;52.724;6.436;2024-03-25T14:10:22;6.90;;;1.70;;
52586;SDS011;38480;52.724;6.436;2024-03-25T14:12:48;7.03;;;1.80;;
52586;SDS011;38480;52.724;6.436;2024-03-25T14:15:14;8.17;;;2.50;;
52586;SDS011;38480;52.724;6.436;2024-03-25T14:17:40;6.77;;;1.80;;
52586;SDS011;38480;52.724;6.436;2024-03-25T14:20:06;6.50;;;1.73;;
52586;SDS011;38480;52.724;6.436;2024-03-25T14:22:33;6.63;;;2.03;;
52586;SDS011;38480;52.724;6.436;2024-03-25T14:25:00;5.10;;;1.70;;
52586;SDS011;38480;52.724;6.436;2024-03-25T14:27:26;7.43;;;1.90;;
52586;SDS011;38480;52.724;6.436;2024-03-25T14:29:52;6.27;;;1.53;;
52586;SDS011;38480;52.724;6.436;2024-03-25T14:32:18;7.93;;;1.57;;
52586;SDS011;38480;52.724;6.436;2024-03-25T14:34:45;7.47;;;2.30;;
52586;SDS011;38480;52.724;6.436;2024-03-25T14:37:11;6.83;;;1.47;;
52586;SDS011;38480;52.724;6.436;2024-03-25T14:39:37;5.73;;;1.70;;